Time;durP1;ratioP1;P1;durP2;ratioP2;P2;SDS_P1;SDS_P2;PMS_P1;PMS_P2;Temp;Humidity;BMP_temperature;BMP_pressure;BME280_temperature;BME280_humidity;BME280_pressure;Samples;Min_cycle;Max_cycle;Signal;HPM_P1;HPM_P2
2021/03/05 00:00:09;;;;;;;17.58;10.38;;;7.10;99.90;;;;;;4993474;28;20061;-64
2021/03/05 00:02:35;;;;;;;20.45;12.90;;;7.00;99.90;;;;;;4993216;28;20034;-64
2021/03/05 00:05:01;;;;;;;19.08;14.15;;;7.20;99.90;;;;;;4992811;28;20046;-66
2021/03/05 00:07:26;;;;;;;23.48;16.65;;;7.10;99.90;;;;;;4993218;28;20391;-64
2021/03/05 00:09:52;;;;;;;25.05;16.67;;;7.10;99.90;;;;;;4992994;28;20053;-65
2021/03/05 00:12:18;;;;;;;22.13;16.27;;;7.00;99.90;;;;;;4993718;28;20026;-64
2021/03/05 00:14:44;;;;;;;26.45;18.52;;;6.90;99.90;;;;;;4993359;28;20062;-67
2021/03/05 00:17:10;;;;;;;24.02;17.77;;;6.80;99.90;;;;;;4992957;28;20088;-65
2021/03/05 00:19:37;;;;;;;24.00;17.95;;;6.70;99.90;;;;;;4975668;28;20109;-65
2021/03/05 00:22:03;;;;;;;19.77;15.05;;;6.60;99.90;;;;;;4974906;28;20447;-66
2021/03/05 00:24:29;;;;;;;18.33;14.52;;;6.60;99.90;;;;;;4993556;28;20034;-68
2021/03/05 00:26:55;;;;;;;17.42;13.77;;;6.50;99.90;;;;;;4975109;28;20038;-67
2021/03/05 00:29:20;;;;;;;19.73;14.10;;;6.40;99.90;;;;;;4992926;28;20041;-66
2021/03/05 00:31:46;;;;;;;21.60;15.02;;;6.30;99.90;;;;;;4991279;28;20034;-69
2021/03/05 00:34:12;;;;;;;25.75;17.17;;;6.20;99.90;;;;;;4985339;28;20058;-67
2021/03/05 00:36:38;;;;;;;27.65;19.75;;;6.10;99.90;;;;;;4989945;28;20395;-67
2021/03/05 00:39:04;;;;;;;29.17;20.65;;;5.90;99.90;;;;;;4991141;28;20049;-67
2021/03/05 00:41:30;;;;;;;33.45;23.13;;;5.80;99.90;;;;;;4989278;28;20030;-67
2021/03/05 00:43:56;;;;;;;32.95;22.58;;;5.80;99.90;;;;;;4986411;28;20049;-67
2021/03/05 00:46:21;;;;;;;37.97;24.90;;;5.70;99.90;;;;;;4992915;28;20391;-67
2021/03/05 00:48:47;;;;;;;38.20;24.90;;;5.60;99.90;;;;;;4992903;28;20092;-70
2021/03/05 00:51:13;;;;;;;37.40;24.23;;;5.50;99.90;;;;;;4992427;28;20037;-67
2021/03/05 00:53:39;;;;;;;34.70;23.50;;;5.40;99.90;;;;;;4992740;28;20034;-68
2021/03/05 00:56:04;;;;;;;38.75;25.58;;;5.40;99.90;;;;;;4992486;28;20664;-68
2021/03/05 00:58:30;;;;;;;40.30;25.42;;;5.30;99.90;;;;;;4992321;28;20037;-68
2021/03/05 01:00:56;;;;;;;40.15;25.98;;;5.10;99.90;;;;;;4993094;28;20519;-67
2021/03/05 01:03:22;;;;;;;40.47;26.00;;;5.10;99.90;;;;;;4993544;28;20035;-68
2021/03/05 01:05:47;;;;;;;39.10;25.20;;;5.00;99.90;;;;;;4992494;28;20045;-70
2021/03/05 01:08:13;;;;;;;39.05;25.55;;;4.90;99.90;;;;;;4975116;28;20092;-66
2021/03/05 01:10:40;;;;;;;45.03;26.77;;;4.80;99.90;;;;;;4992453;28;20041;-67
2021/03/05 01:13:06;;;;;;;46.05;26.83;;;4.80;99.90;;;;;;4991971;28;20084;-68
2021/03/05 01:15:31;;;;;;;46.42;28.45;;;4.80;99.90;;;;;;4992037;28;20027;-66
2021/03/05 01:17:57;;;;;;;47.55;28.52;;;4.70;99.90;;;;;;4985208;28;20077;-66
2021/03/05 01:20:26;;;;;;;47.80;29.15;;;4.50;99.90;;;;;;4991674;28;20062;-66
2021/03/05 01:22:52;;;;;;;46.72;27.90;;;4.40;99.90;;;;;;4991292;28;20030;-67
2021/03/05 01:25:22;;;;;;;45.60;27.33;;;4.40;99.90;;;;;;4991906;28;20027;-65
2021/03/05 01:27:48;;;;;;;45.72;28.15;;;4.40;99.90;;;;;;4991725;28;20061;-67
2021/03/05 01:30:14;;;;;;;49.83;28.95;;;4.30;99.90;;;;;;4992160;28;20112;-66
2021/03/05 01:32:40;;;;;;;52.03;30.02;;;4.20;99.90;;;;;;4974170;28;20112;-66
2021/03/05 01:35:12;;;;;;;52.22;29.17;;;4.20;99.90;;;;;;4991282;28;20065;-65
2021/03/05 01:37:37;;;;;;;52.67;29.88;;;4.20;99.90;;;;;;4988702;28;20391;-66
2021/03/05 01:40:11;;;;;;;47.58;28.42;;;4.10;99.90;;;;;;4990803;28;20026;-66
2021/03/05 01:42:37;;;;;;;50.45;29.38;;;4.10;99.90;;;;;;4990937;28;20027;-66
2021/03/05 01:45:18;;;;;;;51.55;28.48;;;4.10;99.90;;;;;;4990204;28;20037;-66
2021/03/05 01:47:45;;;;;;;52.13;28.20;;;4.00;99.90;;;;;;4988048;28;20725;-66
2021/03/05 01:50:33;;;;;;;49.45;27.10;;;4.00;99.90;;;;;;4973586;28;20041;-67
2021/03/05 01:53:04;;;;;;;53.22;28.92;;;3.90;99.90;;;;;;4991077;28;20100;-67
2021/03/05 01:55:29;;;;;;;54.10;29.23;;;3.80;99.90;;;;;;4991052;28;20543;-67
2021/03/05 01:58:32;;;;;;;59.05;31.55;;;3.80;99.90;;;;;;4990813;28;20121;-67
2021/03/05 02:01:09;;;;;;;62.20;29.70;;;3.60;99.90;;;;;;4991175;28;20149;-67
2021/03/05 02:03:35;;;;;;;58.78;31.15;;;3.50;99.90;;;;;;4992331;28;20076;-67
2021/03/05 02:06:05;;;;;;;66.68;32.53;;;3.50;99.90;;;;;;4983095;28;20042;-67
2021/03/05 02:08:31;;;;;;;65.07;31.95;;;3.50;99.90;;;;;;4991854;28;20154;-66
2021/03/05 02:10:56;;;;;;;65.85;32.40;;;3.50;99.90;;;;;;4990284;28;20117;-67
2021/03/05 02:13:23;;;;;;;65.85;32.63;;;3.40;99.90;;;;;;4992220;28;20105;-67
2021/03/05 02:15:49;;;;;;;65.05;32.28;;;3.40;99.90;;;;;;4991389;28;20019;-69
2021/03/05 02:18:19;;;;;;;65.40;31.33;;;3.40;99.90;;;;;;4991387;28;20034;-66
2021/03/05 02:21:03;;;;;;;67.13;33.08;;;3.30;99.90;;;;;;5005863;28;20113;-66
2021/03/05 02:24:06;;;;;;;68.20;32.25;;;3.20;99.90;;;;;;5007634;28;20109;-65
2021/03/05 02:27:05;;;;;;;62.03;31.25;;;3.20;99.90;;;;;;4995097;28;20027;-65
2021/03/05 02:30:03;;;;;;;64.75;31.80;;;3.30;99.90;;;;;;4990329;28;20124;-65
2021/03/05 02:32:49;;;;;;;63.90;30.23;;;3.20;99.90;;;;;;4980481;28;20046;-65
2021/03/05 02:35:17;;;;;;;65.38;31.70;;;3.20;99.90;;;;;;4990153;28;20045;-68
2021/03/05 02:37:44;;;;;;;66.15;30.85;;;3.20;99.90;;;;;;4991477;28;20034;-65
2021/03/05 02:40:38;;;;;;;66.65;31.42;;;3.10;99.90;;;;;;4973080;28;20113;-67
2021/03/05 02:43:08;;;;;;;62.92;29.50;;;3.20;99.90;;;;;;4990700;28;20030;-65
2021/03/05 02:45:36;;;;;;;60.53;29.85;;;3.10;99.90;;;;;;4990922;28;20033;-65
2021/03/05 02:48:08;;;;;;;65.35;30.00;;;3.10;99.90;;;;;;4990341;28;20578;-65
2021/03/05 02:50:36;;;;;;;60.00;29.17;;;3.10;99.90;;;;;;4991635;28;20046;-65
2021/03/05 02:53:05;;;;;;;56.20;28.25;;;3.10;99.90;;;;;;4990527;28;20137;-65
2021/03/05 02:55:32;;;;;;;57.28;28.60;;;3.10;99.90;;;;;;4991355;28;20101;-65
2021/03/05 02:58:00;;;;;;;54.58;27.90;;;3.10;99.90;;;;;;4993927;28;20027;-65
2021/03/05 03:00:28;;;;;;;60.20;29.17;;;3.00;99.90;;;;;;4995368;28;20026;-65
2021/03/05 03:02:55;;;;;;;57.20;27.60;;;3.00;99.90;;;;;;4993525;28;20045;-66
2021/03/05 03:05:21;;;;;;;57.78;29.38;;;3.10;99.90;;;;;;4994693;28;20361;-65
2021/03/05 03:07:49;;;;;;;56.22;27.60;;;3.10;99.90;;;;;;4994464;28;20395;-65
2021/03/05 03:10:15;;;;;;;53.00;26.13;;;3.10;99.90;;;;;;4994232;28;20034;-65
2021/03/05 03:12:43;;;;;;;57.00;27.40;;;3.10;99.90;;;;;;4994307;28;20471;-65
2021/03/05 03:15:10;;;;;;;56.90;27.33;;;3.10;99.90;;;;;;4993604;28;20030;-65
2021/03/05 03:17:38;;;;;;;50.85;27.23;;;3.10;99.90;;;;;;4977107;28;20030;-65
2021/03/05 03:20:06;;;;;;;52.47;27.58;;;3.20;99.90;;;;;;4994179;28;20027;-65
2021/03/05 03:22:31;;;;;;;52.00;26.95;;;3.20;99.90;;;;;;4993843;28;20387;-66
2021/03/05 03:24:57;;;;;;;52.72;25.75;;;3.10;99.90;;;;;;4976730;28;20027;-65
2021/03/05 03:27:23;;;;;;;48.67;25.88;;;3.20;99.90;;;;;;4993890;28;20050;-66
2021/03/05 03:29:49;;;;;;;48.50;26.02;;;3.20;99.90;;;;;;4994437;28;20049;-66
2021/03/05 03:32:15;;;;;;;48.63;26.15;;;3.20;99.90;;;;;;4993702;28;20034;-65
2021/03/05 03:34:41;;;;;;;53.20;26.08;;;3.10;99.90;;;;;;4973640;28;20133;-66
2021/03/05 03:37:09;;;;;;;50.75;25.92;;;3.10;99.90;;;;;;4973795;28;20432;-66
2021/03/05 03:39:35;;;;;;;46.95;25.23;;;3.10;99.90;;;;;;4975099;28;20031;-65
2021/03/05 03:42:02;;;;;;;44.40;24.40;;;3.10;99.90;;;;;;4973281;28;20038;-66
2021/03/05 03:44:28;;;;;;;47.72;24.95;;;3.10;99.90;;;;;;4975694;28;20034;-65
2021/03/05 03:46:54;;;;;;;46.65;24.35;;;3.10;99.90;;;;;;4976969;28;20043;-68
2021/03/05 03:49:29;;;;;;;45.42;25.58;;;3.20;99.90;;;;;;4974449;28;20034;-65
2021/03/05 03:52:06;;;;;;;47.25;24.33;;;3.20;99.90;;;;;;4974200;28;20065;-68
2021/03/05 03:54:32;;;;;;;44.78;24.08;;;3.20;99.90;;;;;;4974233;28;20037;-65
2021/03/05 03:57:01;;;;;;;42.90;24.13;;;3.20;99.90;;;;;;4973385;28;20102;-66
2021/03/05 03:59:30;;;;;;;43.70;24.60;;;3.10;99.90;;;;;;4974684;28;20031;-65
2021/03/05 04:01:57;;;;;;;40.05;23.13;;;3.10;99.90;;;;;;4971978;28;20062;-67
2021/03/05 04:04:26;;;;;;;41.65;23.02;;;3.10;99.90;;;;;;4974545;28;20141;-66
2021/03/05 04:06:53;;;;;;;44.38;23.65;;;3.10;99.90;;;;;;4973472;28;20052;-68
2021/03/05 04:09:19;;;;;;;44.63;26.75;;;3.10;99.90;;;;;;4974069;28;20038;-67
2021/03/05 04:11:45;;;;;;;39.45;22.77;;;3.10;99.90;;;;;;4973903;28;20465;-66
2021/03/05 04:14:12;;;;;;;43.47;24.92;;;3.10;99.90;;;;;;4973251;28;20085;-66
2021/03/05 04:16:37;;;;;;;34.10;21.73;;;3.10;99.90;;;;;;4974405;28;20038;-66
2021/03/05 04:19:04;;;;;;;37.85;22.98;;;3.10;99.90;;;;;;4973087;28;20042;-66
2021/03/05 04:21:35;;;;;;;32.28;20.63;;;3.00;99.90;;;;;;4974175;28;20502;-66
2021/03/05 04:24:01;;;;;;;36.58;21.77;;;3.00;99.90;;;;;;4973276;28;20110;-66
2021/03/05 04:26:27;;;;;;;35.25;21.77;;;3.00;99.90;;;;;;4973652;28;20031;-66
2021/03/05 04:28:53;;;;;;;39.20;22.30;;;2.90;99.90;;;;;;4973610;28;20054;-68
2021/03/05 04:31:19;;;;;;;33.33;21.13;;;2.80;99.90;;;;;;4973431;28;20436;-66
2021/03/05 04:33:45;;;;;;;32.15;20.65;;;2.80;99.90;;;;;;4977245;28;20048;-66
2021/03/05 04:36:10;;;;;;;32.58;20.65;;;2.80;99.90;;;;;;4992291;28;20374;-66
2021/03/05 04:38:36;;;;;;;33.70;21.13;;;2.90;99.90;;;;;;4975550;28;20077;-66
2021/03/05 04:41:02;;;;;;;31.23;20.77;;;2.90;99.90;;;;;;4992552;28;20033;-66
2021/03/05 04:43:27;;;;;;;31.30;20.67;;;2.80;99.90;;;;;;4992907;28;20455;-66
2021/03/05 04:45:53;;;;;;;32.05;20.63;;;2.90;99.90;;;;;;4993022;28;20036;-66
2021/03/05 04:48:19;;;;;;;31.17;20.27;;;2.90;99.90;;;;;;4974254;28;20101;-66
2021/03/05 04:50:44;;;;;;;33.97;21.83;;;2.80;99.90;;;;;;4992741;28;20022;-67
2021/03/05 04:53:10;;;;;;;33.60;20.60;;;2.80;99.90;;;;;;4975158;28;20023;-66
2021/03/05 04:55:36;;;;;;;29.95;20.10;;;2.80;99.90;;;;;;4975291;28;20097;-66
2021/03/05 04:58:02;;;;;;;31.15;19.60;;;2.80;99.90;;;;;;4991928;28;20125;-67
2021/03/05 05:00:28;;;;;;;31.30;20.58;;;2.80;99.90;;;;;;4992994;28;20027;-65
2021/03/05 05:02:54;;;;;;;30.38;18.80;;;2.70;99.90;;;;;;4992654;28;20026;-65
2021/03/05 05:05:19;;;;;;;30.70;19.27;;;2.70;99.90;;;;;;4974399;28;20042;-65
2021/03/05 05:07:45;;;;;;;27.88;18.50;;;2.60;99.90;;;;;;4992408;28;20041;-66
2021/03/05 05:10:11;;;;;;;29.42;18.27;;;2.80;99.90;;;;;;4973939;28;20038;-66
2021/03/05 05:12:37;;;;;;;35.45;20.90;;;2.70;99.90;;;;;;4991120;28;20085;-68
2021/03/05 05:15:04;;;;;;;29.52;18.00;;;2.80;99.90;;;;;;4990516;28;20062;-68
2021/03/05 05:17:30;;;;;;;28.88;18.55;;;2.80;99.90;;;;;;4982296;28;20113;-67
2021/03/05 05:19:56;;;;;;;31.70;18.67;;;2.80;99.90;;;;;;4990715;28;20524;-68
2021/03/05 05:22:22;;;;;;;28.02;18.05;;;2.80;99.90;;;;;;4989993;28;20042;-67
2021/03/05 05:24:47;;;;;;;27.55;17.65;;;2.80;99.90;;;;;;4995028;28;20120;-68
2021/03/05 05:27:13;;;;;;;25.48;16.27;;;2.80;99.90;;;;;;4994981;28;20394;-68
2021/03/05 05:29:39;;;;;;;26.73;17.42;;;2.90;99.90;;;;;;4991239;28;20464;-68
2021/03/05 05:32:05;;;;;;;28.75;16.45;;;2.90;99.90;;;;;;4990187;28;20037;-68
2021/03/05 05:34:30;;;;;;;28.20;17.83;;;2.80;99.90;;;;;;4988410;28;20050;-68
2021/03/05 05:36:56;;;;;;;28.08;17.35;;;2.90;99.90;;;;;;4986621;28;20502;-68
2021/03/05 05:39:22;;;;;;;29.33;17.27;;;2.80;99.90;;;;;;4982908;28;20027;-68
2021/03/05 05:41:47;;;;;;;27.88;17.85;;;2.90;99.90;;;;;;4972080;28;20026;-67
2021/03/05 05:44:13;;;;;;;27.65;16.70;;;2.90;99.90;;;;;;4986036;28;20088;-67
2021/03/05 05:46:39;;;;;;;28.95;18.60;;;3.00;99.90;;;;;;4987859;28;20034;-66
2021/03/05 05:49:05;;;;;;;26.33;16.27;;;3.00;99.90;;;;;;4986256;28;20113;-68
2021/03/05 05:51:35;;;;;;;26.90;16.98;;;3.00;99.90;;;;;;4984590;28;20117;-66
2021/03/05 05:54:09;;;;;;;28.75;15.38;;;2.90;99.90;;;;;;4986761;28;20081;-70
2021/03/05 05:56:39;;;;;;;26.10;15.75;;;2.90;99.90;;;;;;4983313;28;20043;-66
2021/03/05 05:59:04;;;;;;;25.65;15.80;;;2.90;99.90;;;;;;4984889;28;20096;-67
2021/03/05 06:01:36;;;;;;;27.50;16.85;;;3.00;99.90;;;;;;4985987;28;20419;-66
2021/03/05 06:04:03;;;;;;;27.02;16.90;;;2.90;99.90;;;;;;4989754;28;20034;-69
2021/03/05 06:06:30;;;;;;;25.95;15.50;;;2.90;99.90;;;;;;4981331;28;20038;-67
2021/03/05 06:09:00;;;;;;;27.25;15.52;;;2.90;99.90;;;;;;4983930;28;20034;-67
2021/03/05 06:11:37;;;;;;;30.02;17.10;;;2.90;99.90;;;;;;4986875;28;20074;-67
2021/03/05 06:14:11;;;;;;;24.38;15.23;;;2.80;99.90;;;;;;4980178;28;20391;-68
2021/03/05 06:16:55;;;;;;;26.13;15.45;;;2.80;99.90;;;;;;4984741;28;20105;-67
2021/03/05 06:19:22;;;;;;;25.88;15.38;;;2.90;99.90;;;;;;4986036;28;20147;-66
2021/03/05 06:21:48;;;;;;;27.83;16.48;;;3.00;99.90;;;;;;4986257;28;20063;-66
2021/03/05 06:24:14;;;;;;;28.35;14.88;;;3.00;99.90;;;;;;4973194;28;20081;-66
2021/03/05 06:26:46;;;;;;;27.40;16.55;;;3.00;99.90;;;;;;4971806;28;20131;-66
2021/03/05 06:29:13;;;;;;;27.25;16.33;;;3.00;99.90;;;;;;4968773;28;20097;-66
2021/03/05 06:31:39;;;;;;;26.00;15.57;;;3.00;99.90;;;;;;4975204;28;20033;-66
2021/03/05 06:34:06;;;;;;;28.55;15.98;;;3.10;99.90;;;;;;4982515;28;20050;-69
2021/03/05 06:36:32;;;;;;;30.25;14.80;;;3.00;99.90;;;;;;4982985;28;20069;-66
2021/03/05 06:38:58;;;;;;;28.70;15.73;;;3.00;99.90;;;;;;4959215;28;20031;-66
2021/03/05 06:41:25;;;;;;;27.75;16.35;;;3.00;99.90;;;;;;4979441;28;20030;-66
2021/03/05 06:44:02;;;;;;;24.38;14.45;;;3.00;99.90;;;;;;4975225;28;20034;-66
2021/03/05 06:46:39;;;;;;;26.00;15.20;;;3.00;99.90;;;;;;4981007;28;20034;-66
2021/03/05 06:49:06;;;;;;;26.20;14.70;;;3.00;99.90;;;;;;4974311;28;20202;-67
2021/03/05 06:51:32;;;;;;;28.13;15.35;;;3.00;99.90;;;;;;4975599;28;20033;-66
2021/03/05 06:54:02;;;;;;;29.15;16.25;;;3.00;99.90;;;;;;4975306;28;20061;-66
2021/03/05 06:56:29;;;;;;;30.03;15.60;;;3.00;99.90;;;;;;4975672;28;20534;-66
2021/03/05 06:59:04;;;;;;;27.27;16.17;;;3.00;99.90;;;;;;4975782;28;20282;-66
2021/03/05 07:01:30;;;;;;;31.90;17.10;;;2.90;99.90;;;;;;4975552;28;20094;-66
2021/03/05 07:04:05;;;;;;;28.73;15.68;;;2.90;99.90;;;;;;4975925;28;20062;-66
2021/03/05 07:06:31;;;;;;;30.45;16.73;;;2.90;99.90;;;;;;4976411;28;20352;-68
2021/03/05 07:08:57;;;;;;;33.65;18.40;;;2.80;99.90;;;;;;4980472;28;20039;-68
2021/03/05 07:11:44;;;;;;;29.35;17.20;;;2.80;99.90;;;;;;4957610;28;20053;-67
2021/03/05 07:14:12;;;;;;;31.52;17.00;;;2.90;99.90;;;;;;4981194;28;20034;-65
2021/03/05 07:16:43;;;;;;;29.98;16.08;;;2.80;99.90;;;;;;4977819;28;20026;-66
2021/03/05 07:19:17;;;;;;;30.70;15.95;;;2.80;99.90;;;;;;4974659;28;20063;-65
2021/03/05 07:21:46;;;;;;;31.52;17.30;;;2.80;99.90;;;;;;4975317;28;20105;-64
2021/03/05 07:24:13;;;;;;;29.77;16.27;;;2.90;99.90;;;;;;4974624;28;20066;-67
2021/03/05 07:26:44;;;;;;;29.35;16.42;;;3.00;99.90;;;;;;4975495;28;20093;-65
2021/03/05 07:29:34;;;;;;;29.20;16.95;;;3.00;99.90;;;;;;4974499;28;20118;-66
2021/03/05 07:32:07;;;;;;;29.38;16.90;;;3.00;99.90;;;;;;4937257;28;20440;-65
2021/03/05 07:34:45;;;;;;;30.02;16.25;;;2.90;99.90;;;;;;4983803;28;20053;-64
2021/03/05 07:37:12;;;;;;;28.90;15.85;;;3.00;99.90;;;;;;4993259;28;20034;-68
2021/03/05 07:39:41;;;;;;;27.30;16.70;;;3.00;99.90;;;;;;4992138;28;20035;-65
2021/03/05 07:42:08;;;;;;;30.88;15.98;;;3.10;99.90;;;;;;4990739;28;20045;-65
2021/03/05 07:44:36;;;;;;;31.27;17.33;;;3.10;99.90;;;;;;4993069;28;20105;-71
2021/03/05 07:47:08;;;;;;;29.88;16.23;;;3.20;99.90;;;;;;4992068;28;20535;-69
2021/03/05 07:49:35;;;;;;;32.95;17.08;;;3.10;99.90;;;;;;4993214;28;20109;-65
2021/03/05 07:52:02;;;;;;;29.75;14.95;;;3.10;99.90;;;;;;4992332;28;20032;-69
2021/03/05 07:54:40;;;;;;;29.10;16.55;;;3.20;99.90;;;;;;4991647;28;20058;-65
2021/03/05 07:57:06;;;;;;;30.48;16.77;;;3.20;99.90;;;;;;4990155;28;20545;-68
2021/03/05 07:59:38;;;;;;;32.33;16.65;;;3.20;99.90;;;;;;4992185;28;20053;-66
2021/03/05 08:02:04;;;;;;;30.35;16.17;;;3.20;99.90;;;;;;4992526;28;20113;-68
2021/03/05 08:05:01;;;;;;;30.95;16.85;;;3.20;99.90;;;;;;4975331;28;20396;-67
2021/03/05 08:07:30;;;;;;;34.03;16.50;;;3.30;99.90;;;;;;4992610;28;20046;-65
2021/03/05 08:09:56;;;;;;;30.98;16.33;;;3.30;99.90;;;;;;4992605;28;20033;-65
2021/03/05 08:12:30;;;;;;;31.40;17.20;;;3.30;99.90;;;;;;4991749;28;20027;-66
2021/03/05 08:15:08;;;;;;;29.02;16.23;;;3.30;99.90;;;;;;4975814;28;20037;-65
2021/03/05 08:17:38;;;;;;;32.00;15.85;;;3.40;99.90;;;;;;4991964;28;20543;-64
2021/03/05 08:20:06;;;;;;;30.75;15.35;;;3.40;99.90;;;;;;4992031;28;20105;-67
2021/03/05 08:22:33;;;;;;;28.73;15.95;;;3.40;99.90;;;;;;4992554;28;20038;-68
2021/03/05 08:25:21;;;;;;;29.60;15.82;;;3.40;99.90;;;;;;4992398;28;20109;-66
2021/03/05 08:27:47;;;;;;;30.05;15.02;;;3.40;99.90;;;;;;4992653;28;20031;-67
2021/03/05 08:30:13;;;;;;;26.27;14.82;;;3.40;99.90;;;;;;4991676;28;20022;-68
2021/03/05 08:32:55;;;;;;;28.50;15.13;;;3.40;99.90;;;;;;4991874;28;20064;-72
2021/03/05 08:35:30;;;;;;;27.65;14.85;;;3.40;99.90;;;;;;4982189;28;20043;-63
2021/03/05 08:37:58;;;;;;;25.10;14.60;;;3.50;99.90;;;;;;4985613;28;20491;-65
2021/03/05 08:40:25;;;;;;;27.02;15.35;;;3.40;99.90;;;;;;4984784;28;20682;-64
2021/03/05 08:42:52;;;;;;;24.55;14.60;;;3.40;99.90;;;;;;4987209;28;20100;-68
2021/03/05 08:45:29;;;;;;;30.92;16.95;;;3.40;99.90;;;;;;4991486;28;20030;-67
2021/03/05 08:47:59;;;;;;;28.30;14.60;;;3.50;99.90;;;;;;4978093;28;20049;-65
2021/03/05 08:50:36;;;;;;;28.52;14.93;;;3.60;99.90;;;;;;4973309;28;20018;-66
2021/03/05 08:53:07;;;;;;;28.52;15.05;;;3.60;99.90;;;;;;4976509;28;20038;-68
2021/03/05 08:55:36;;;;;;;27.92;14.30;;;3.60;99.90;;;;;;4987844;28;20463;-67
2021/03/05 08:58:02;;;;;;;28.52;14.15;;;3.60;99.90;;;;;;4987019;28;20096;-68
2021/03/05 09:00:31;;;;;;;26.88;14.50;;;3.60;99.90;;;;;;4966679;28;20026;-67
2021/03/05 09:03:17;;;;;;;24.58;13.27;;;3.70;99.90;;;;;;4980641;28;20452;-68
2021/03/05 09:05:47;;;;;;;26.20;15.10;;;3.70;99.90;;;;;;4966483;28;20081;-67
2021/03/05 09:08:16;;;;;;;22.85;13.95;;;3.70;99.90;;;;;;4972312;28;20042;-66
2021/03/05 09:11:09;;;;;;;23.90;13.32;;;3.70;99.90;;;;;;4979643;28;20464;-67
2021/03/05 09:13:35;;;;;;;27.30;12.50;;;3.80;99.90;;;;;;4981101;28;20134;-66
2021/03/05 09:16:04;;;;;;;25.20;13.63;;;3.80;99.90;;;;;;4984968;28;20502;-66
2021/03/05 09:18:32;;;;;;;23.92;13.63;;;3.80;99.90;;;;;;4964635;28;20034;-66
2021/03/05 09:21:02;;;;;;;25.95;13.63;;;3.80;99.90;;;;;;4969487;28;20041;-66
2021/03/05 09:23:31;;;;;;;24.58;13.63;;;3.80;99.90;;;;;;4965847;28;20031;-66
2021/03/05 09:25:59;;;;;;;23.13;13.80;;;3.90;99.90;;;;;;4968741;28;20554;-67
2021/03/05 09:28:26;;;;;;;22.80;12.23;;;3.80;99.90;;;;;;4969188;28;20034;-66
2021/03/05 09:30:56;;;;;;;22.30;12.80;;;3.90;99.50;;;;;;4972630;28;20035;-65
2021/03/05 09:33:33;;;;;;;23.15;13.38;;;3.90;99.50;;;;;;4971949;28;20483;-66
2021/03/05 09:36:10;;;;;;;21.52;12.70;;;3.90;99.90;;;;;;4992757;28;20096;-67
2021/03/05 09:38:38;;;;;;;27.33;12.57;;;3.90;99.00;;;;;;4985057;28;20482;-67
2021/03/05 09:41:18;;;;;;;23.60;13.35;;;4.00;99.90;;;;;;4991863;28;20061;-70
2021/03/05 09:43:46;;;;;;;22.87;12.77;;;4.10;97.50;;;;;;4974094;28;20038;-67
2021/03/05 09:46:26;;;;;;;30.88;12.38;;;4.20;96.40;;;;;;4990509;28;20034;-67
2021/03/05 09:48:53;;;;;;;24.92;12.15;;;4.20;97.70;;;;;;4973878;28;20395;-67
2021/03/05 09:51:20;;;;;;;20.77;12.23;;;4.30;98.00;;;;;;4991609;28;20030;-67
2021/03/05 09:53:57;;;;;;;23.80;12.55;;;4.40;95.40;;;;;;4969195;28;20034;-68
2021/03/05 09:56:28;;;;;;;20.08;11.80;;;4.40;94.10;;;;;;4987475;28;20030;-68
2021/03/05 09:58:55;;;;;;;21.67;12.07;;;4.60;93.50;;;;;;4991010;28;20109;-67
2021/03/05 10:01:22;;;;;;;22.17;12.57;;;4.60;93.00;;;;;;4991011;28;20053;-67
2021/03/05 10:03:58;;;;;;;20.42;12.10;;;4.70;94.30;;;;;;4991091;28;20490;-67
2021/03/05 10:06:29;;;;;;;17.67;11.90;;;4.70;92.50;;;;;;4974361;28;20487;-67
2021/03/05 10:09:00;;;;;;;19.27;11.63;;;4.80;90.90;;;;;;4990046;28;20403;-67
2021/03/05 10:11:37;;;;;;;20.45;11.38;;;4.80;90.80;;;;;;4990763;28;20467;-67
2021/03/05 10:14:07;;;;;;;18.42;11.02;;;4.80;91.20;;;;;;4991627;28;20027;-67
2021/03/05 10:16:38;;;;;;;19.33;10.88;;;4.90;89.00;;;;;;4987713;28;20116;-68
2021/03/05 10:19:08;;;;;;;19.63;10.88;;;4.90;89.80;;;;;;4990345;28;20403;-70
2021/03/05 10:21:41;;;;;;;20.42;10.88;;;5.00;88.40;;;;;;4988984;28;20121;-68
2021/03/05 10:24:08;;;;;;;19.67;11.50;;;5.00;89.40;;;;;;4993028;28;20031;-69
2021/03/05 10:26:34;;;;;;;19.30;11.60;;;5.10;87.90;;;;;;4991560;28;20027;-67
2021/03/05 10:29:00;;;;;;;21.40;12.32;;;5.10;90.30;;;;;;4991787;28;20039;-67
2021/03/05 10:31:40;;;;;;;20.73;11.48;;;5.20;90.00;;;;;;4973032;28;20034;-66
2021/03/05 10:34:17;;;;;;;20.85;11.05;;;5.10;91.30;;;;;;4991392;28;20086;-69
2021/03/05 10:36:43;;;;;;;20.75;11.30;;;5.20;90.20;;;;;;4995433;28;20058;-66
2021/03/05 10:39:08;;;;;;;23.02;11.73;;;5.20;90.20;;;;;;4991080;28;20062;-68
2021/03/05 10:41:34;;;;;;;32.58;13.05;;;5.10;90.70;;;;;;4991282;28;20425;-66
2021/03/05 10:43:59;;;;;;;20.50;11.73;;;5.10;91.10;;;;;;4991081;28;20026;-65
2021/03/05 10:46:25;;;;;;;20.95;11.52;;;5.00;91.10;;;;;;4973798;28;20022;-65
2021/03/05 10:48:51;;;;;;;19.33;11.75;;;5.10;90.70;;;;;;4991063;28;20042;-65
2021/03/05 10:51:16;;;;;;;21.42;11.32;;;5.10;89.10;;;;;;4990979;28;20022;-65
2021/03/05 10:53:42;;;;;;;21.17;11.23;;;5.10;89.50;;;;;;4991502;28;20018;-65
2021/03/05 10:56:08;;;;;;;22.67;11.73;;;5.10;87.80;;;;;;4991603;28;20034;-67
2021/03/05 10:58:33;;;;;;;21.10;11.68;;;5.10;90.20;;;;;;4991124;28;20030;-65
2021/03/05 11:00:59;;;;;;;22.45;11.48;;;5.00;88.30;;;;;;4991434;28;20065;-64
2021/03/05 11:03:24;;;;;;;20.70;12.18;;;5.10;89.60;;;;;;4990476;28;20031;-67
2021/03/05 11:05:50;;;;;;;21.48;11.85;;;5.10;88.60;;;;;;4996369;28;20551;-64
2021/03/05 11:08:19;;;;;;;17.77;10.93;;;5.20;87.90;;;;;;4989249;28;20035;-65
2021/03/05 11:10:44;;;;;;;19.90;11.52;;;5.20;85.20;;;;;;4991336;28;20077;-64
2021/03/05 11:13:10;;;;;;;21.83;11.77;;;5.20;85.10;;;;;;4990798;28;20467;-66
2021/03/05 11:15:35;;;;;;;21.35;12.25;;;5.20;86.40;;;;;;4990505;28;20088;-65
2021/03/05 11:18:01;;;;;;;24.73;12.25;;;5.30;83.20;;;;;;4992456;28;20117;-65
2021/03/05 11:20:27;;;;;;;20.23;12.20;;;5.30;84.10;;;;;;4993551;28;20049;-65
2021/03/05 11:22:53;;;;;;;19.45;11.75;;;5.20;85.10;;;;;;4993895;28;20023;-65
2021/03/05 11:25:19;;;;;;;23.95;11.90;;;5.10;84.50;;;;;;4994074;28;20494;-64
2021/03/05 11:27:45;;;;;;;20.00;11.77;;;5.00;85.30;;;;;;4995032;28;20054;-65
2021/03/05 11:30:11;;;;;;;25.33;12.35;;;5.00;86.60;;;;;;4976478;28;20027;-67
2021/03/05 11:32:37;;;;;;;22.35;12.48;;;4.90;87.60;;;;;;4992644;28;20475;-66
2021/03/05 11:35:03;;;;;;;21.65;12.18;;;4.90;88.30;;;;;;4992914;28;20092;-65
2021/03/05 11:37:29;;;;;;;20.38;13.52;;;4.90;85.90;;;;;;4992103;28;20480;-65
2021/03/05 11:39:56;;;;;;;20.13;11.18;;;4.90;84.90;;;;;;4992599;28;20117;-66
2021/03/05 11:42:23;;;;;;;21.27;12.45;;;4.90;85.50;;;;;;4992729;28;20035;-68
2021/03/05 11:44:49;;;;;;;25.33;13.15;;;4.90;83.60;;;;;;4993616;28;20030;-65
2021/03/05 11:47:15;;;;;;;20.98;12.65;;;4.90;84.30;;;;;;4991651;28;20037;-66
2021/03/05 11:49:41;;;;;;;18.42;12.77;;;4.90;84.70;;;;;;4992879;28;20145;-65
2021/03/05 11:52:07;;;;;;;20.88;12.63;;;5.00;85.20;;;;;;4975555;28;20117;-63
2021/03/05 11:54:33;;;;;;;20.38;11.52;;;4.90;84.00;;;;;;4992461;28;20162;-65
2021/03/05 11:56:58;;;;;;;18.85;10.88;;;5.00;83.30;;;;;;4975794;28;20077;-65
2021/03/05 11:59:24;;;;;;;19.13;12.13;;;5.00;82.70;;;;;;4996670;28;20026;-65
2021/03/05 12:01:49;;;;;;;21.75;12.65;;;5.10;83.90;;;;;;5005671;28;20034;-65
2021/03/05 12:04:15;;;;;;;20.23;11.88;;;5.10;83.20;;;;;;4989151;28;20100;-65
2021/03/05 12:06:41;;;;;;;22.40;13.32;;;5.10;83.90;;;;;;4979014;28;20026;-65
2021/03/05 12:09:06;;;;;;;23.90;13.00;;;5.20;84.70;;;;;;4993399;28;20042;-65
2021/03/05 12:11:33;;;;;;;19.25;12.20;;;5.30;83.30;;;;;;4977897;28;20030;-66
2021/03/05 12:13:59;;;;;;;22.40;12.70;;;5.30;83.00;;;;;;4993360;28;20117;-65
2021/03/05 12:16:24;;;;;;;24.50;12.55;;;5.40;83.00;;;;;;4992234;28;20102;-66
2021/03/05 12:18:50;;;;;;;21.85;12.77;;;5.40;83.10;;;;;;4975518;28;20089;-65
2021/03/05 12:21:16;;;;;;;22.42;12.20;;;5.50;82.30;;;;;;4991837;28;20034;-65
2021/03/05 12:23:42;;;;;;;22.70;12.68;;;5.60;82.40;;;;;;4991992;28;20022;-67
2021/03/05 12:26:08;;;;;;;23.63;12.25;;;5.70;80.90;;;;;;4992886;28;20045;-65
2021/03/05 12:28:44;;;;;;;18.20;11.63;;;5.70;80.60;;;;;;4992504;28;20034;-66
2021/03/05 12:31:10;;;;;;;21.05;11.82;;;5.60;80.90;;;;;;4986856;28;20110;-71
2021/03/05 12:33:35;;;;;;;20.08;11.55;;;5.70;81.10;;;;;;4990776;28;20117;-67
2021/03/05 12:36:01;;;;;;;21.33;13.18;;;5.60;80.50;;;;;;4988447;28;20109;-66
2021/03/05 12:38:27;;;;;;;24.23;11.98;;;5.70;79.70;;;;;;4983754;28;20030;-66
2021/03/05 12:40:52;;;;;;;19.15;12.25;;;5.60;79.70;;;;;;4987039;28;20023;-65
2021/03/05 12:43:18;;;;;;;23.80;13.18;;;5.60;80.60;;;;;;4986557;28;20018;-65